Terminal Aerodrome Forecast
Issued by NWS

Home | Current Version | Previous Version | Text Only | Print | Product List | Glossary On
Versions: 1 2 3 4 5 6 7 8 9 10 11 12 13 14
407
FTUS42 KGSP 251128
TAFGMU
TAF
KGMU 251128Z 2512/2612 03003KT P6SM SKC
     FM251700 11004KT P6SM FEW060 PROB30 2601/2606 4SM -SHRA BKN050
     FM260600 06004KT P6SM BKN015
     FM260900 06004KT P6SM BKN008=

USA.gov is the U.S. government's official web portal to all federal, state and local government web resources and services.